Time;durP1;ratioP1;P1;durP2;ratioP2;P2;SDS_P1;SDS_P2;PMS_P1;PMS_P2;Temp;Humidity;BMP_temperature;BMP_pressure;BME280_temperature;BME280_humidity;BME280_pressure;Samples;Min_cycle;Max_cycle;Signal;HPM_P1;HPM_P2
2024/01/07 00:01:55;;;;;;;18.13;9.13;;;;;;;5.48;62.06;101645.44;4921756;28;115000;-75
2024/01/07 00:04:22;;;;;;;17.88;9.15;;;;;;;5.48;61.98;101642.81;4929317;28;124213;-74
2024/01/07 00:06:50;;;;;;;18.20;9.40;;;;;;;5.47;62.09;101646.34;4911363;28;123593;-74
2024/01/07 00:09:17;;;;;;;23.38;10.23;;;;;;;5.49;62.13;101649.81;4933217;28;114151;-75
2024/01/07 00:11:44;;;;;;;20.92;9.50;;;;;;;5.48;62.09;101648.06;4922064;28;113808;-75
2024/01/07 00:14:11;;;;;;;20.40;9.65;;;;;;;5.49;62.06;101649.81;4933510;28;123584;-74
2024/01/07 00:16:41;;;;;;;17.02;9.27;;;;;;;5.48;61.84;101653.31;4929824;28;124147;-75
2024/01/07 00:19:08;;;;;;;18.63;9.18;;;;;;;5.50;62.09;101656.84;4923707;28;114295;-74
2024/01/07 00:21:36;;;;;;;18.20;9.35;;;;;;;5.50;62.25;101651.56;4927056;28;113995;-75
2024/01/07 00:24:03;;;;;;;23.65;10.60;;;;;;;5.49;61.90;101655.06;4928860;28;123242;-74
2024/01/07 00:26:31;;;;;;;20.95;9.88;;;;;;;5.49;61.97;101660.34;4914872;28;123739;-76
2024/01/07 00:28:58;;;;;;;23.98;10.65;;;;;;;5.47;62.03;101667.38;4929143;28;113957;-74
2024/01/07 00:31:25;;;;;;;23.13;11.07;;;;;;;5.46;61.85;101670.84;4911996;28;114721;-75
2024/01/07 00:33:53;;;;;;;21.52;10.07;;;;;;;5.44;62.20;101668.28;4913848;28;124210;-75
2024/01/07 00:36:20;;;;;;;20.65;10.43;;;;;;;5.44;62.08;101672.63;4915394;28;123036;-75
2024/01/07 00:38:48;;;;;;;18.67;9.48;;;;;;;5.44;62.12;101683.13;4931246;28;113766;-75
2024/01/07 00:41:15;;;;;;;25.48;12.05;;;;;;;5.44;62.16;101680.50;4922375;28;114395;-75
2024/01/07 00:43:44;;;;;;;22.55;10.95;;;;;;;5.42;62.16;101675.28;4931184;28;124502;-74
2024/01/07 00:46:11;;;;;;;23.60;10.77;;;;;;;5.42;62.09;101680.53;4915480;28;123493;-75
2024/01/07 00:48:39;;;;;;;23.17;10.75;;;;;;;5.43;62.04;101681.41;4915536;28;115675;-74
2024/01/07 00:51:06;;;;;;;25.00;11.10;;;;;;;5.41;61.97;101684.06;4923703;28;113948;-75
2024/01/07 00:53:34;;;;;;;24.15;11.30;;;;;;;5.40;61.92;101687.56;4930080;28;123496;-74
2024/01/07 00:56:01;;;;;;;23.80;11.45;;;;;;;5.39;62.02;101687.59;4915026;28;123384;-75
2024/01/07 00:58:29;;;;;;;25.92;11.55;;;;;;;5.36;62.14;101685.00;4920721;28;113300;-74
2024/01/07 01:00:56;;;;;;;27.25;11.10;;;;;;;5.32;62.15;101688.53;4914508;28;113150;-74
2024/01/07 01:03:24;;;;;;;26.75;12.85;;;;;;;5.28;62.14;101697.34;4897937;28;123349;-74
2024/01/07 01:05:52;;;;;;;26.77;12.02;;;;;;;5.25;62.28;101706.09;4915644;28;123173;-74
2024/01/07 01:08:19;;;;;;;26.38;12.30;;;;;;;5.20;62.31;101706.16;4940498;28;113415;-75
2024/01/07 01:10:47;;;;;;;29.77;12.88;;;;;;;5.17;62.59;101706.16;4934492;28;114919;-75
2024/01/07 01:13:14;;;;;;;29.40;12.38;;;;;;;5.14;62.60;101711.47;4932473;28;123724;-75
2024/01/07 01:15:41;;;;;;;33.42;13.45;;;;;;;5.14;62.45;101706.22;4915316;28;124256;-75
2024/01/07 01:18:09;;;;;;;32.67;13.13;;;;;;;5.12;62.54;101713.19;4915232;28;113731;-75
2024/01/07 01:20:36;;;;;;;35.35;14.43;;;;;;;5.12;62.74;101710.56;4931084;28;114432;-75
2024/01/07 01:23:03;;;;;;;33.60;14.18;;;;;;;5.12;62.70;101713.19;4928410;28;123065;-75
2024/01/07 01:25:32;;;;;;;37.85;15.30;;;;;;;5.13;62.75;101712.34;4917444;28;124502;-75
2024/01/07 01:27:59;;;;;;;39.33;14.02;;;;;;;5.15;62.67;101717.56;4912873;28;114299;-75
2024/01/07 01:30:30;;;;;;;35.40;14.50;;;;;;;5.15;62.75;101728.94;4923624;28;113859;-75
2024/01/07 01:32:58;;;;;;;39.05;15.65;;;;;;;5.16;62.85;101714.94;4925395;28;124593;-75
2024/01/07 01:35:26;;;;;;;37.45;14.95;;;;;;;5.17;63.07;101721.91;4931989;28;122766;-74
2024/01/07 01:37:54;;;;;;;36.40;14.52;;;;;;;5.17;62.90;101742.94;4922187;28;115346;-75
2024/01/07 01:40:21;;;;;;;41.33;15.60;;;;;;;5.15;62.95;101739.44;4930543;28;115561;-75
2024/01/07 01:42:49;;;;;;;42.78;15.77;;;;;;;5.15;62.88;101744.69;4925664;28;123728;-76
2024/01/07 01:45:19;;;;;;;38.92;15.52;;;;;;;5.15;63.20;101739.44;4914951;28;124008;-74
2024/01/07 01:47:47;;;;;;;43.50;16.10;;;;;;;5.16;63.10;101746.47;4913464;28;114400;-74
2024/01/07 01:50:15;;;;;;;39.20;15.95;;;;;;;5.18;63.07;101751.66;4931630;28;112092;-75
2024/01/07 01:52:44;;;;;;;36.70;15.00;;;;;;;5.19;63.08;101746.41;4932175;28;124132;-74
2024/01/07 01:55:12;;;;;;;41.15;15.82;;;;;;;5.20;63.08;101747.31;4918316;28;124668;-75
2024/01/07 01:57:41;;;;;;;38.58;15.35;;;;;;;5.21;63.12;101755.16;4916584;28;114276;-75
2024/01/07 02:00:09;;;;;;;45.97;16.17;;;;;;;5.20;63.11;101758.66;4928788;28;113404;-75
2024/01/07 02:02:37;;;;;;;44.67;15.82;;;;;;;5.19;63.16;101762.16;4920319;28;123065;-74
2024/01/07 02:05:04;;;;;;;37.30;15.35;;;;;;;5.20;63.19;101753.41;4914501;28;123743;-75
2024/01/07 02:07:32;;;;;;;37.38;14.82;;;;;;;5.19;62.88;101762.16;4927033;28;114143;-74
2024/01/07 02:09:59;;;;;;;36.28;13.93;;;;;;;5.20;63.09;101758.66;4924431;28;114010;-75
2024/01/07 02:12:27;;;;;;;35.08;13.40;;;;;;;5.22;62.89;101767.41;4943579;28;124279;-75
2024/01/07 02:14:54;;;;;;;36.92;13.98;;;;;;;5.21;63.04;101765.66;4922871;28;124692;-74
2024/01/07 02:17:23;;;;;;;31.88;13.77;;;;;;;5.22;63.31;101756.91;4919660;28;113553;-74
2024/01/07 02:19:50;;;;;;;33.25;13.60;;;;;;;5.23;63.22;101763.00;4918236;28;113151;-74
2024/01/07 02:22:18;;;;;;;30.25;13.43;;;;;;;5.24;63.02;101765.63;4915525;28;123954;-75
2024/01/07 02:24:46;;;;;;;33.22;13.90;;;;;;;5.26;63.27;101766.50;4924518;28;122657;-74
2024/01/07 02:27:13;;;;;;;30.13;13.13;;;;;;;5.28;63.41;101765.63;4938905;28;114545;-75
2024/01/07 02:29:40;;;;;;;29.33;11.88;;;;;;;5.29;63.28;101772.59;4931829;28;114400;-75
2024/01/07 02:32:10;;;;;;;30.33;12.00;;;;;;;5.30;63.15;101769.09;4927046;28;124010;-75
2024/01/07 02:34:37;;;;;;;29.45;12.65;;;;;;;5.29;62.85;101773.47;4924067;28;122878;-75
2024/01/07 02:37:04;;;;;;;25.63;11.60;;;;;;;5.28;62.90;101773.50;4928282;28;114775;-75
2024/01/07 02:39:31;;;;;;;25.73;11.35;;;;;;;5.26;62.85;101778.75;4926757;28;112917;-76
2024/01/07 02:41:59;;;;;;;27.15;12.25;;;;;;;5.25;63.23;101780.53;4915989;28;123353;-75
2024/01/07 02:44:26;;;;;;;26.80;11.93;;;;;;;5.24;63.12;101781.41;4914387;28;124022;-77
2024/01/07 02:46:54;;;;;;;28.25;12.18;;;;;;;5.23;63.05;101787.50;4924115;28;113921;-75
2024/01/07 02:49:21;;;;;;;23.33;10.70;;;;;;;5.22;62.77;101788.41;4917861;28;114078;-75
2024/01/07 02:51:49;;;;;;;25.65;11.10;;;;;;;5.20;62.79;101794.56;4917978;28;123896;-75
2024/01/07 02:54:17;;;;;;;21.88;10.88;;;;;;;5.17;62.88;101795.44;4917572;28;124107;-75
2024/01/07 02:56:44;;;;;;;24.50;11.38;;;;;;;5.15;62.94;101802.47;4920936;28;114521;-76
2024/01/07 02:59:11;;;;;;;24.48;10.85;;;;;;;5.13;62.89;101796.34;4923759;28;113334;-76
2024/01/07 03:01:42;;;;;;;24.02;11.25;;;;;;;5.15;63.17;101798.97;4928278;28;124295;-75
2024/01/07 03:04:11;;;;;;;27.15;12.07;;;;;;;5.15;63.21;101805.09;4920934;28;123478;-75
2024/01/07 03:06:38;;;;;;;25.15;12.38;;;;;;;5.14;62.95;101811.25;4926781;28;113443;-75
2024/01/07 03:09:06;;;;;;;25.63;10.93;;;;;;;5.09;63.04;101807.78;4929692;28;113207;-75
2024/01/07 03:11:38;;;;;;;24.42;11.20;;;;;;;5.06;63.06;101808.63;4928573;28;124048;-75
2024/01/07 03:14:05;;;;;;;24.98;10.23;;;;;;;5.06;63.27;101807.78;4934687;28;124173;-75
2024/01/07 03:16:33;;;;;;;21.70;10.02;;;;;;;5.05;63.15;101811.31;4926403;28;115651;-75
2024/01/07 03:19:01;;;;;;;20.88;9.63;;;;;;;5.03;63.24;101813.06;4919603;28;114531;-75
2024/01/07 03:21:29;;;;;;;23.25;9.90;;;;;;;5.03;62.96;101813.06;4922105;28;124961;-75
2024/01/07 03:23:56;;;;;;;20.50;8.80;;;;;;;5.02;63.01;101821.81;4935903;28;124685;-75
2024/01/07 03:26:24;;;;;;;20.48;8.95;;;;;;;5.01;62.85;101820.06;4926898;28;114018;-75
2024/01/07 03:28:51;;;;;;;23.40;10.68;;;;;;;5.03;63.07;101820.94;4915438;28;114932;-75
2024/01/07 03:31:19;;;;;;;20.20;8.82;;;;;;;5.03;63.06;101818.31;4923238;28;125020;-75
2024/01/07 03:33:48;;;;;;;19.75;8.98;;;;;;;5.03;63.31;101818.31;4935105;28;122750;-75
2024/01/07 03:36:16;;;;;;;18.88;9.18;;;;;;;5.03;63.11;101818.31;4921309;28;114588;-75
2024/01/07 03:38:43;;;;;;;22.08;8.88;;;;;;;5.03;63.31;101823.56;4919464;28;114265;-75
2024/01/07 03:41:17;;;;;;;19.90;9.32;;;;;;;5.04;63.07;101825.28;4927723;28;122525;-75
2024/01/07 03:43:46;;;;;;;21.20;9.07;;;;;;;5.03;62.68;101823.56;4921974;28;122778;-75
2024/01/07 03:46:15;;;;;;;18.25;9.10;;;;;;;5.05;62.96;101832.31;4936444;28;112779;-75
2024/01/07 03:48:43;;;;;;;24.80;10.32;;;;;;;5.04;63.07;101835.78;4922390;28;113987;-75
2024/01/07 03:51:10;;;;;;;19.65;9.45;;;;;;;5.03;62.87;101840.19;4934680;28;124537;-75
2024/01/07 03:53:38;;;;;;;19.63;9.98;;;;;;;5.01;62.77;101831.44;4927587;28;123788;-75
2024/01/07 03:56:05;;;;;;;16.50;9.05;;;;;;;5.01;62.77;101836.69;4919557;28;115159;-75
2024/01/07 03:58:35;;;;;;;15.82;8.80;;;;;;;5.00;62.69;101834.09;4933120;28;111715;-75
2024/01/07 04:01:02;;;;;;;20.95;9.90;;;;;;;5.00;62.72;101839.31;4918407;28;123150;-75
2024/01/07 04:03:29;;;;;;;17.33;8.57;;;;;;;5.00;62.78;101836.72;4925040;28;124295;-75
2024/01/07 04:05:57;;;;;;;18.35;8.65;;;;;;;4.99;62.80;101837.56;4922371;28;115412;-75
2024/01/07 04:08:25;;;;;;;15.02;8.13;;;;;;;4.99;62.87;101842.81;4918714;28;115349;-75
2024/01/07 04:10:52;;;;;;;17.60;8.30;;;;;;;4.97;62.57;101845.47;4937387;28;122941;-75
2024/01/07 04:13:20;;;;;;;15.75;8.13;;;;;;;4.96;62.73;101853.34;4924099;28;122947;-76
2024/01/07 04:15:47;;;;;;;15.50;7.95;;;;;;;4.95;63.03;101846.34;4926441;28;113447;-76
2024/01/07 04:18:14;;;;;;;19.17;8.73;;;;;;;4.94;62.64;101849.88;4924649;28;114477;-75
2024/01/07 04:20:43;;;;;;;17.30;8.48;;;;;;;4.94;62.82;101856.00;4925457;28;123562;-75
2024/01/07 04:23:10;;;;;;;15.98;7.93;;;;;;;4.94;62.74;101860.38;4933137;28;124103;-75
2024/01/07 04:25:38;;;;;;;13.95;7.88;;;;;;;4.91;62.52;101866.50;4945956;28;114041;-75
2024/01/07 04:28:05;;;;;;;14.18;7.90;;;;;;;4.90;62.72;101863.88;4931518;28;113667;-75
2024/01/07 04:30:33;;;;;;;15.38;7.50;;;;;;;4.87;62.52;101865.63;4920286;28;124968;-75
2024/01/07 04:33:01;;;;;;;14.60;7.47;;;;;;;4.86;62.47;101877.03;4929927;28;124226;-76
2024/01/07 04:35:28;;;;;;;12.65;6.82;;;;;;;4.86;62.70;101874.41;4923506;28;114123;-75
2024/01/07 04:37:56;;;;;;;13.55;7.20;;;;;;;4.86;62.86;101884.91;4926181;28;112260;-75
2024/01/07 04:40:23;;;;;;;13.77;7.63;;;;;;;4.87;62.76;101876.13;4931071;28;124392;-75
2024/01/07 04:42:52;;;;;;;14.93;7.95;;;;;;;4.86;62.38;101884.91;4934171;28;123769;-75
2024/01/07 04:45:19;;;;;;;15.40;8.50;;;;;;;4.85;62.58;101888.41;4924781;28;113826;-75
2024/01/07 04:47:47;;;;;;;16.30;8.48;;;;;;;4.83;62.48;101882.28;4919237;28;114197;-76
2024/01/07 04:50:15;;;;;;;16.80;8.23;;;;;;;4.79;62.39;101893.69;4928125;28;123961;-75
2024/01/07 04:52:42;;;;;;;14.23;7.85;;;;;;;4.77;62.33;101895.44;4942675;28;123535;-75
2024/01/07 04:55:09;;;;;;;16.20;8.23;;;;;;;4.76;62.39;101892.81;4947836;28;113712;-75
2024/01/07 04:57:37;;;;;;;16.88;7.93;;;;;;;4.75;62.45;101894.56;4952821;28;114679;-75
2024/01/07 05:00:05;;;;;;;15.98;8.05;;;;;;;4.73;62.31;101898.97;4921508;28;123962;-75
2024/01/07 05:02:32;;;;;;;15.63;7.88;;;;;;;4.73;62.80;101904.22;4923885;28;123678;-76
2024/01/07 05:05:00;;;;;;;13.23;7.65;;;;;;;4.73;62.49;101903.31;4916643;28;113328;-75
2024/01/07 05:07:27;;;;;;;12.93;7.57;;;;;;;4.74;62.62;101905.94;4940242;28;112943;-75
2024/01/07 05:09:55;;;;;;;14.75;8.13;;;;;;;4.74;62.47;101900.69;4926211;28;124198;-75
2024/01/07 05:12:24;;;;;;;15.32;8.30;;;;;;;4.73;62.51;101904.22;4920473;28;123760;-75
2024/01/07 05:14:52;;;;;;;14.65;7.55;;;;;;;4.72;62.73;101910.31;4916678;28;113275;-76
2024/01/07 05:17:20;;;;;;;14.48;7.88;;;;;;;4.72;62.77;101920.81;4931848;28;113879;-76
2024/01/07 05:19:47;;;;;;;15.00;7.95;;;;;;;4.70;62.65;101914.69;4922610;28;123961;-76
2024/01/07 05:22:16;;;;;;;14.25;7.65;;;;;;;4.70;62.43;101925.19;4918782;28;123517;-76
2024/01/07 05:24:43;;;;;;;16.00;8.50;;;;;;;4.71;62.60;101926.97;4937484;28;114112;-76
2024/01/07 05:27:11;;;;;;;10.98;7.10;;;;;;;4.71;62.78;101926.97;4947660;28;113824;-75
2024/01/07 05:29:38;;;;;;;12.93;7.28;;;;;;;4.72;62.76;101939.19;4916180;28;124391;-76
2024/01/07 05:32:06;;;;;;;13.27;7.13;;;;;;;4.73;62.67;101946.19;4929174;28;124422;-75
2024/01/07 05:34:33;;;;;;;12.25;7.32;;;;;;;4.72;62.73;101949.69;4934146;28;114095;-77
2024/01/07 05:37:01;;;;;;;14.27;7.47;;;;;;;4.71;62.59;101942.72;4919109;28;113500;-76
2024/01/07 05:39:28;;;;;;;12.48;7.10;;;;;;;4.72;62.66;101949.69;4901562;28;123416;-76
2024/01/07 05:41:56;;;;;;;13.25;7.75;;;;;;;4.73;62.66;101946.19;4934293;28;124227;-76
2024/01/07 05:44:23;;;;;;;13.35;7.85;;;;;;;4.75;62.23;101954.94;4922269;28;115146;-76
2024/01/07 05:46:56;;;;;;;12.88;7.75;;;;;;;4.73;62.25;101955.78;4920928;28;115249;-76
2024/01/07 05:49:24;;;;;;;16.33;7.78;;;;;;;4.70;62.58;101961.94;4925481;28;124329;-76
2024/01/07 05:51:51;;;;;;;13.85;8.02;;;;;;;4.67;62.09;101964.56;4930975;28;123634;-76
2024/01/07 05:54:19;;;;;;;14.98;7.43;;;;;;;4.65;62.40;101958.44;4921581;28;114813;-76
2024/01/07 05:56:46;;;;;;;17.42;8.20;;;;;;;4.63;62.34;101960.19;4923777;28;113786;-76
2024/01/07 05:59:13;;;;;;;13.27;7.90;;;;;;;4.61;62.46;101965.44;4926881;28;124745;-76
2024/01/07 06:01:42;;;;;;;12.40;7.00;;;;;;;4.58;62.37;101973.34;4916931;28;123958;-76
2024/01/07 06:04:09;;;;;;;14.05;7.72;;;;;;;4.57;62.37;101981.22;4922186;28;114766;-76
2024/01/07 06:06:37;;;;;;;14.57;7.75;;;;;;;4.55;62.27;101973.34;4930982;28;114119;-76
2024/01/07 06:09:04;;;;;;;14.68;7.72;;;;;;;4.56;62.50;101974.19;4917844;28;124318;-76
2024/01/07 06:11:33;;;;;;;15.63;8.45;;;;;;;4.55;62.31;101982.97;4914678;28;123337;-76
2024/01/07 06:14:00;;;;;;;13.00;8.00;;;;;;;4.52;62.43;101983.84;4929030;28;114873;-76
2024/01/07 06:16:27;;;;;;;14.02;7.47;;;;;;;4.49;62.52;101974.22;4917239;28;113667;-76
2024/01/07 06:18:54;;;;;;;16.25;8.00;;;;;;;4.49;62.48;101978.59;4923675;28;123475;-75
2024/01/07 06:21:26;;;;;;;15.25;7.80;;;;;;;4.49;62.58;101984.72;4913615;28;123803;-76
2024/01/07 06:23:57;;;;;;;14.52;7.90;;;;;;;4.48;62.34;101993.47;4919534;28;114268;-75
2024/01/07 06:26:24;;;;;;;14.27;8.02;;;;;;;4.48;62.20;102003.97;4930242;28;113121;-75
2024/01/07 06:28:51;;;;;;;16.23;7.97;;;;;;;4.47;62.42;102010.06;4924719;28;124241;-77
2024/01/07 06:31:18;;;;;;;16.67;8.40;;;;;;;4.45;61.96;102014.44;4930907;28;123991;-77
2024/01/07 06:33:46;;;;;;;13.20;7.00;;;;;;;4.46;62.45;102013.59;4931993;28;116120;-76
2024/01/07 06:36:14;;;;;;;13.05;7.30;;;;;;;4.47;62.25;102020.56;4918924;28;114056;-75
2024/01/07 06:38:41;;;;;;;12.35;6.90;;;;;;;4.47;62.52;102023.19;4925403;28;124135;-75
2024/01/07 06:41:12;;;;;;;12.98;7.68;;;;;;;4.45;62.02;102024.94;4918444;28;123961;-73
2024/01/07 06:43:41;;;;;;;15.55;7.80;;;;;;;4.43;62.06;102042.44;4908862;28;113897;-74
2024/01/07 06:46:10;;;;;;;16.25;8.00;;;;;;;4.42;61.89;102034.56;4910889;28;114362;-74
2024/01/07 06:48:38;;;;;;;13.45;7.75;;;;;;;4.39;62.04;102040.69;4919832;28;123980;-74
2024/01/07 06:51:09;;;;;;;14.07;7.45;;;;;;;4.37;62.50;102045.06;4935198;28;123976;-75
2024/01/07 06:53:40;;;;;;;13.15;6.95;;;;;;;4.35;62.06;102054.69;4916297;28;114502;-73
2024/01/07 06:56:07;;;;;;;13.75;7.22;;;;;;;4.34;62.03;102047.69;4911712;28;114342;-74
2024/01/07 06:58:35;;;;;;;17.10;7.70;;;;;;;4.34;62.04;102046.81;4921581;28;125507;-74
2024/01/07 07:01:02;;;;;;;13.32;7.32;;;;;;;4.34;62.19;102057.31;4923895;28;123175;-74
2024/01/07 07:03:36;;;;;;;14.45;8.25;;;;;;;4.33;61.96;102060.78;4930166;28;114233;-74
2024/01/07 07:06:05;;;;;;;14.60;6.50;;;;;;;4.31;62.08;102068.66;4926404;28;114015;-74
2024/01/07 07:08:42;;;;;;;16.67;7.90;;;;;;;4.28;62.10;102064.28;4922124;28;123247;-77
2024/01/07 07:14:13;;;;;;;11.48;6.43;;;;;;;4.25;62.23;102082.63;4919770;28;113521;-72
2024/01/07 07:16:40;;;;;;;12.30;6.32;;;;;;;4.26;61.92;102083.53;4922417;28;113809;-72
2024/01/07 07:19:08;;;;;;;13.30;6.38;;;;;;;4.26;62.01;102086.16;4922940;28;123563;-72
2024/01/07 07:21:35;;;;;;;12.93;6.13;;;;;;;4.28;62.05;102094.88;4929599;28;124788;-72
2024/01/07 07:24:02;;;;;;;14.30;6.20;;;;;;;4.29;62.05;102091.38;4902645;28;114922;-72
2024/01/07 07:26:29;;;;;;;12.45;6.68;;;;;;;4.29;62.05;102096.63;4925846;28;115084;-71
2024/01/07 07:28:57;;;;;;;14.63;6.68;;;;;;;4.31;61.88;102107.97;4933524;28;123767;-72
2024/01/07 07:31:24;;;;;;;14.43;6.65;;;;;;;4.30;61.91;102103.63;4925983;28;124033;-72
2024/01/07 07:33:52;;;;;;;13.50;6.13;;;;;;;4.31;61.86;102110.59;4917017;28;114293;-72
2024/01/07 07:36:19;;;;;;;14.13;7.15;;;;;;;4.32;62.06;102107.13;4908174;28;114205;-72
2024/01/07 07:38:46;;;;;;;11.93;6.57;;;;;;;4.33;62.01;102115.88;4922214;28;123213;-72
2024/01/07 07:41:13;;;;;;;11.90;6.20;;;;;;;4.33;61.91;102119.34;4923129;28;124784;-71
2024/01/07 07:43:41;;;;;;;13.02;6.82;;;;;;;4.34;61.91;102121.13;4915249;28;113579;-71
2024/01/07 07:46:08;;;;;;;13.60;6.53;;;;;;;4.36;62.19;102135.09;4933352;28;113811;-71
2024/01/07 07:48:35;;;;;;;12.65;6.60;;;;;;;4.38;61.98;102135.09;4926114;28;124500;-71
2024/01/07 07:51:03;;;;;;;12.65;6.75;;;;;;;4.37;61.77;102136.88;4925959;28;124490;-71
2024/01/07 07:53:30;;;;;;;14.80;6.70;;;;;;;4.35;62.02;102138.63;4898988;28;114337;-71
2024/01/07 07:56:02;;;;;;;12.98;6.53;;;;;;;4.34;61.81;102135.97;4923762;28;114872;-71
2024/01/07 07:58:37;;;;;;;13.60;6.53;;;;;;;4.32;61.78;102149.09;4915415;28;123322;-71
2024/01/07 08:01:08;;;;;;;12.52;6.82;;;;;;;4.31;62.01;102143.84;4914417;28;124562;-71
2024/01/07 08:03:38;;;;;;;11.57;6.50;;;;;;;4.29;61.65;102149.06;4903783;28;114392;-71
2024/01/07 08:06:09;;;;;;;13.40;6.55;;;;;;;4.28;61.85;102157.81;4896107;28;113757;-71
2024/01/07 08:08:39;;;;;;;14.80;6.03;;;;;;;4.25;61.79;102155.19;4913003;28;123638;-71
2024/01/07 08:11:09;;;;;;;12.98;6.07;;;;;;;4.24;61.71;102167.44;4897569;28;123272;-71
2024/01/07 08:13:38;;;;;;;11.88;6.13;;;;;;;4.23;61.57;102160.41;4898693;28;114714;-71
2024/01/07 08:16:10;;;;;;;9.88;5.95;;;;;;;4.23;61.82;102159.56;4913011;28;114471;-71
2024/01/07 08:18:38;;;;;;;13.20;6.20;;;;;;;4.24;61.94;102177.06;4916543;28;123437;-71
2024/01/07 08:21:08;;;;;;;10.82;5.57;;;;;;;4.25;61.48;102165.69;4896288;28;124461;-71
2024/01/07 08:23:37;;;;;;;12.23;6.50;;;;;;;4.22;61.63;102168.28;4903331;28;113593;-71
2024/01/07 08:26:06;;;;;;;10.00;5.70;;;;;;;4.20;61.55;102175.25;4901307;28;113606;-71
2024/01/07 08:28:37;;;;;;;12.60;6.40;;;;;;;4.18;61.32;102185.78;4913065;28;123949;-71
2024/01/07 08:31:07;;;;;;;15.35;5.90;;;;;;;4.17;61.13;102185.78;4906572;28;123278;-71
2024/01/07 08:33:35;;;;;;;12.68;5.90;;;;;;;4.15;61.18;102187.50;4897151;28;113394;-71
2024/01/07 08:36:04;;;;;;;12.52;6.22;;;;;;;4.14;61.17;102193.59;4908394;28;113454;-71
2024/01/07 08:38:31;;;;;;;9.60;5.55;;;;;;;4.13;61.18;102194.50;4920109;28;124158;-71
2024/01/07 08:40:58;;;;;;;9.25;5.13;;;;;;;4.13;61.05;102199.75;4905629;28;122980;-71
2024/01/07 08:43:26;;;;;;;9.15;5.28;;;;;;;4.15;61.35;102192.75;4924134;28;114386;-71
2024/01/07 08:45:53;;;;;;;10.70;5.47;;;;;;;4.19;61.60;102212.88;4921440;28;113790;-71
2024/01/07 08:48:20;;;;;;;12.00;5.30;;;;;;;4.18;61.22;102208.47;4927744;28;123895;-71
2024/01/07 08:50:54;;;;;;;10.63;5.68;;;;;;;4.16;61.18;102210.22;4933111;28;123647;-71
2024/01/07 08:53:22;;;;;;;11.05;5.88;;;;;;;4.16;61.18;102215.47;4914831;28;114604;-71
2024/01/07 08:55:49;;;;;;;8.88;5.25;;;;;;;4.15;61.02;102209.34;4916732;28;113409;-71
2024/01/07 08:58:17;;;;;;;9.40;5.57;;;;;;;4.13;60.95;102216.34;4931627;28;124151;-71
2024/01/07 09:00:44;;;;;;;8.82;5.32;;;;;;;4.12;60.78;102229.44;4932794;28;124369;-71
2024/01/07 09:03:11;;;;;;;12.35;5.53;;;;;;;4.10;61.09;102232.91;4914733;28;114661;-71
2024/01/07 09:05:39;;;;;;;9.38;5.18;;;;;;;4.08;60.90;102229.41;4923559;28;115301;-71
2024/01/07 09:08:06;;;;;;;9.70;5.28;;;;;;;4.09;61.21;102240.81;4928482;28;124616;-71
2024/01/07 09:10:34;;;;;;;11.30;5.30;;;;;;;4.09;60.91;102240.81;4916871;28;123784;-71
2024/01/07 09:13:05;;;;;;;9.65;5.50;;;;;;;4.10;61.26;102243.41;4912764;23;113952;-71
2024/01/07 09:15:37;;;;;;;10.02;5.03;;;;;;;4.10;61.21;102242.53;4889720;28;113861;-71
2024/01/07 09:18:11;;;;;;;8.50;4.85;;;;;;;4.09;61.08;102257.41;4894966;28;126171;-71
2024/01/07 09:20:40;;;;;;;11.10;5.60;;;;;;;4.07;61.17;102264.38;4910806;28;123837;-71
2024/01/07 09:28:49;;;;;;;8.50;5.50;;;;;;;4.03;60.93;102273.09;4911929;28;97694;-69
2024/01/07 09:31:18;;;;;;;8.95;5.43;;;;;;;4.02;61.00;102279.19;4886606;28;124622;-70
2024/01/07 09:33:47;;;;;;;9.52;4.75;;;;;;;3.99;61.17;102276.56;4876051;28;112669;-70
2024/01/07 09:36:16;;;;;;;10.32;5.53;;;;;;;3.99;61.05;102280.94;4886932;28;114205;-69
2024/01/07 09:38:58;;;;;;;9.98;5.40;;;;;;;3.98;61.06;102282.69;4884970;28;124124;-69
2024/01/07 09:41:26;;;;;;;7.82;5.03;;;;;;;3.98;60.82;102293.16;4882777;28;122824;-70
2024/01/07 09:44:00;;;;;;;8.25;4.45;;;;;;;3.99;61.00;102294.91;4887602;28;113907;-70
2024/01/07 09:46:32;;;;;;;7.13;4.55;;;;;;;3.99;61.22;102300.16;4895278;28;113513;-70
2024/01/07 09:49:08;;;;;;;7.50;4.85;;;;;;;4.01;60.96;102294.91;4889827;28;124160;-70
2024/01/07 09:51:41;;;;;;;;;;;;;;;4.02;61.23;102300.16;4878007;28;124938;-69
2024/01/07 09:54:17;;;;;;;8.57;5.32;;;;;;;4.04;61.04;102306.31;4890105;28;114494;-69
2024/01/07 09:57:06;;;;;;;9.73;4.95;;;;;;;4.02;60.77;102318.53;4884629;28;114221;-69
2024/01/07 09:59:39;;;;;;;7.53;5.07;;;;;;;4.02;60.81;102313.28;4877947;28;123275;-69
2024/01/07 10:02:15;;;;;;;7.88;4.90;;;;;;;4.01;60.77;102315.88;4877991;28;123688;-70
2024/01/07 10:04:48;;;;;;;11.45;5.22;;;;;;;3.99;60.68;102318.50;4877408;28;113487;-70
2024/01/07 10:07:20;;;;;;;8.45;5.22;;;;;;;4.00;60.83;102320.25;4895942;28;113747;-69
2024/01/07 10:09:53;;;;;;;9.10;5.03;;;;;;;4.00;60.88;102320.25;4902689;28;125065;-70
2024/01/07 10:12:27;;;;;;;10.90;5.07;;;;;;;4.01;61.02;102322.03;4890281;28;124249;-70
2024/01/07 10:14:56;;;;;;;7.65;4.80;;;;;;;4.03;60.67;102325.53;4885111;28;114198;-71
2024/01/07 10:17:29;;;;;;;8.38;5.15;;;;;;;4.03;60.61;102328.16;4880435;28;113813;-70
2024/01/07 10:19:58;;;;;;;6.65;4.70;;;;;;;4.03;60.85;102320.28;4866953;28;124161;-70
2024/01/07 10:22:30;;;;;;;8.90;5.32;;;;;;;4.04;60.70;102327.28;4875066;28;124592;-71
2024/01/07 10:25:02;;;;;;;8.52;4.78;;;;;;;4.05;60.60;102329.03;4863789;28;114188;-70
2024/01/07 10:27:35;;;;;;;8.45;4.95;;;;;;;4.05;60.37;102334.28;4870803;28;113251;-71
2024/01/07 10:30:05;;;;;;;9.90;4.97;;;;;;;4.06;60.59;102330.78;4883511;28;124280;-70
2024/01/07 10:32:38;;;;;;;9.35;4.88;;;;;;;4.08;60.28;102334.28;4877979;28;123148;-71
2024/01/07 10:35:20;;;;;;;7.30;4.78;;;;;;;4.08;60.60;102336.91;4867181;28;113465;-70
2024/01/07 10:37:49;;;;;;;9.75;5.20;;;;;;;4.09;60.39;102336.06;4910172;28;113176;-70
2024/01/07 10:40:17;;;;;;;8.70;4.72;;;;;;;4.13;60.55;102341.31;4898291;28;123549;-70
2024/01/07 10:42:49;;;;;;;8.65;4.95;;;;;;;4.15;60.24;102339.59;4868778;28;123533;-71
2024/01/07 10:45:19;;;;;;;8.90;5.00;;;;;;;4.15;60.39;102345.69;4893816;28;114867;-70
2024/01/07 10:47:56;;;;;;;8.40;4.72;;;;;;;4.16;60.40;102341.31;4867115;28;114695;-71
2024/01/07 10:50:28;;;;;;;7.80;4.80;;;;;;;4.15;60.03;102331.72;4889979;28;124020;-70
2024/01/07 10:53:07;;;;;;;8.65;4.70;;;;;;;4.15;60.26;102339.59;4874869;28;124419;-71
2024/01/07 10:55:39;;;;;;;8.63;4.88;;;;;;;4.15;60.21;102347.44;4883888;28;114498;-71
2024/01/07 10:58:09;;;;;;;8.80;5.22;;;;;;;4.14;59.92;102343.94;4877766;28;114449;-70
2024/01/07 11:00:43;;;;;;;9.43;5.25;;;;;;;4.15;59.88;102339.59;4876386;28;124222;-70
2024/01/07 11:03:26;;;;;;;9.40;5.20;;;;;;;4.15;60.03;102355.31;4877977;28;123569;-70
2024/01/07 11:06:30;;;;;;;11.52;5.55;;;;;;;4.17;59.80;102353.56;4873610;28;113431;-70
2024/01/07 11:10:04;;;;;;;7.95;5.10;;;;;;;4.15;59.82;102352.69;4818943;29;114359;-71
2024/01/07 11:13:40;;;;;;;7.25;4.93;;;;;;;4.09;60.02;102356.16;4911254;28;124727;-71
2024/01/07 11:16:46;;;;;;;6.82;4.75;;;;;;;4.08;60.17;102354.38;4871975;28;123071;-71
2024/01/07 11:19:14;;;;;;;7.20;4.55;;;;;;;4.12;59.91;102360.53;4851399;29;114190;-70
2024/01/07 11:21:42;;;;;;;10.45;4.70;;;;;;;4.14;60.00;102366.66;4907699;23;113738;-71
2024/01/07 11:24:09;;;;;;;9.48;4.55;;;;;;;4.17;59.93;102364.06;4910734;28;120230;-70
2024/01/07 11:26:37;;;;;;;7.18;4.38;;;;;;;4.21;60.15;102365.84;4918023;28;124297;-71
2024/01/07 11:29:04;;;;;;;8.20;4.50;;;;;;;4.25;59.84;102362.34;4901534;28;111864;-71
2024/01/07 11:31:58;;;;;;;8.55;4.10;;;;;;;4.29;59.80;102367.66;4912694;28;113976;-70
2024/01/07 11:34:47;;;;;;;5.45;3.75;;;;;;;4.30;59.21;102376.38;4915703;28;123870;-70
2024/01/07 11:37:15;;;;;;;5.30;3.80;;;;;;;4.32;59.65;102369.41;4915618;28;123964;-70